sensor_id;sensor_type;location;lat;lon;timestamp;pressure;altitude;pressure_sealevel;temperature;humidity
7200;BME280;3641;49.082;8.200;2023-01-04T00:01:49;101618.19;;;5.10;96.85
7200;BME280;3641;49.082;8.200;2023-01-04T00:04:17;101628.63;;;5.39;93.43
7200;BME280;3641;49.082;8.200;2023-01-04T00:06:43;101617.63;;;5.18;94.97
7200;BME280;3641;49.082;8.200;2023-01-04T00:09:10;101623.31;;;4.90;97.72
7200;BME280;3641;49.082;8.200;2023-01-04T00:11:36;101622.22;;;4.93;98.18
7200;BME280;3641;49.082;8.200;2023-01-04T00:14:03;101619.53;;;5.40;92.74
7200;BME280;3641;49.082;8.200;2023-01-04T00:16:29;101616.59;;;5.66;91.21
7200;BME280;3641;49.082;8.200;2023-01-04T00:18:56;101612.09;;;5.31;94.57
7200;BME280;3641;49.082;8.200;2023-01-04T00:21:26;101609.28;;;5.32;93.52
7200;BME280;3641;49.082;8.200;2023-01-04T00:23:54;101613.97;;;5.30;93.90
7200;BME280;3641;49.082;8.200;2023-01-04T00:26:23;101615.22;;;5.49;92.34
7200;BME280;3641;49.082;8.200;2023-01-04T00:28:52;101616.81;;;5.51;92.48
7200;BME280;3641;49.082;8.200;2023-01-04T00:31:19;101622.78;;;5.21;94.43
7200;BME280;3641;49.082;8.200;2023-01-04T00:33:46;101616.00;;;5.15;96.22
7200;BME280;3641;49.082;8.200;2023-01-04T00:36:13;101612.72;;;5.34;94.04
7200;BME280;3641;49.082;8.200;2023-01-04T00:38:41;101604.41;;;5.02;96.11
7200;BME280;3641;49.082;8.200;2023-01-04T00:41:09;101604.94;;;5.18;95.34
7200;BME280;3641;49.082;8.200;2023-01-04T00:43:36;101604.09;;;5.29;94.48
7200;BME280;3641;49.082;8.200;2023-01-04T00:46:03;101603.84;;;5.21;94.72
7200;BME280;3641;49.082;8.200;2023-01-04T00:48:31;101604.66;;;5.10;95.71
7200;BME280;3641;49.082;8.200;2023-01-04T00:50:57;101605.91;;;5.06;95.37
7200;BME280;3641;49.082;8.200;2023-01-04T00:53:24;101596.84;;;5.30;93.84
7200;BME280;3641;49.082;8.200;2023-01-04T00:55:57;101595.63;;;4.87;95.85
7200;BME280;3641;49.082;8.200;2023-01-04T00:58:24;101589.38;;;4.98;95.85
7200;BME280;3641;49.082;8.200;2023-01-04T01:00:51;101586.13;;;5.28;92.52
7200;BME280;3641;49.082;8.200;2023-01-04T01:03:17;101589.47;;;5.20;92.76
7200;BME280;3641;49.082;8.200;2023-01-04T01:05:44;101582.06;;;5.11;94.10
7200;BME280;3641;49.082;8.200;2023-01-04T01:08:10;101586.78;;;5.32;92.04
7200;BME280;3641;49.082;8.200;2023-01-04T01:10:53;101584.88;;;5.09;94.52
7200;BME280;3641;49.082;8.200;2023-01-04T01:13:21;101586.66;;;5.33;91.89
7200;BME280;3641;49.082;8.200;2023-01-04T01:15:48;101583.53;;;5.15;93.54
7200;BME280;3641;49.082;8.200;2023-01-04T01:18:14;101581.44;;;4.83;95.20
7200;BME280;3641;49.082;8.200;2023-01-04T01:20:41;101585.97;;;4.71;97.16
7200;BME280;3641;49.082;8.200;2023-01-04T01:23:10;101583.72;;;4.65;97.23
7200;BME280;3641;49.082;8.200;2023-01-04T01:25:37;101584.34;;;4.93;96.51
7200;BME280;3641;49.082;8.200;2023-01-04T01:28:04;101590.38;;;4.97;95.77
7200;BME280;3641;49.082;8.200;2023-01-04T01:30:31;101583.94;;;4.86;96.70
7200;BME280;3641;49.082;8.200;2023-01-04T01:32:57;101579.34;;;4.51;98.30
7200;BME280;3641;49.082;8.200;2023-01-04T01:35:24;101586.94;;;4.46;98.69
7200;BME280;3641;49.082;8.200;2023-01-04T01:37:50;101592.84;;;5.00;95.89
7200;BME280;3641;49.082;8.200;2023-01-04T01:40:17;101592.03;;;4.86;96.87
7200;BME280;3641;49.082;8.200;2023-01-04T01:42:43;101587.34;;;5.13;93.41
7200;BME280;3641;49.082;8.200;2023-01-04T01:45:23;101592.06;;;4.98;94.74
7200;BME280;3641;49.082;8.200;2023-01-04T01:47:51;101586.47;;;4.77;96.16
7200;BME280;3641;49.082;8.200;2023-01-04T01:50:21;101579.97;;;4.44;97.49
7200;BME280;3641;49.082;8.200;2023-01-04T01:52:50;101578.03;;;4.57;96.28
7200;BME280;3641;49.082;8.200;2023-01-04T01:55:19;101582.44;;;4.82;95.43
7200;BME280;3641;49.082;8.200;2023-01-04T01:57:47;101584.34;;;4.93;93.48
7200;BME280;3641;49.082;8.200;2023-01-04T02:00:15;101576.59;;;4.40;96.01
7200;BME280;3641;49.082;8.200;2023-01-04T02:02:48;101572.97;;;4.52;95.75
7200;BME280;3641;49.082;8.200;2023-01-04T02:05:18;101572.53;;;4.34;96.50
7200;BME280;3641;49.082;8.200;2023-01-04T02:07:46;101575.50;;;4.43;96.90
7200;BME280;3641;49.082;8.200;2023-01-04T02:10:13;101575.41;;;4.20;97.22
7200;BME280;3641;49.082;8.200;2023-01-04T02:12:41;101565.38;;;4.58;95.45
7200;BME280;3641;49.082;8.200;2023-01-04T02:15:09;101570.22;;;4.65;94.06
7200;BME280;3641;49.082;8.200;2023-01-04T02:17:39;101558.72;;;4.50;95.05
7200;BME280;3641;49.082;8.200;2023-01-04T02:20:37;101556.94;;;4.38;95.69
7200;BME280;3641;49.082;8.200;2023-01-04T02:23:27;101558.78;;;4.38;95.82
7200;BME280;3641;49.082;8.200;2023-01-04T02:35:20;101533.06;;;4.32;96.90
7200;BME280;3641;49.082;8.200;2023-01-04T02:37:57;101532.22;;;4.31;96.07
7200;BME280;3641;49.082;8.200;2023-01-04T02:40:33;101536.00;;;4.29;96.91
7200;BME280;3641;49.082;8.200;2023-01-04T02:43:08;101542.91;;;4.33;96.49
7200;BME280;3641;49.082;8.200;2023-01-04T02:45:58;101549.84;;;4.24;97.25
7200;BME280;3641;49.082;8.200;2023-01-04T02:48:35;101543.59;;;4.24;97.16
7200;BME280;3641;49.082;8.200;2023-01-04T02:51:26;101550.84;;;3.99;98.85
7200;BME280;3641;49.082;8.200;2023-01-04T02:53:53;101553.69;;;3.85;99.46
7200;BME280;3641;49.082;8.200;2023-01-04T02:56:24;101557.78;;;3.77;99.15
7200;BME280;3641;49.082;8.200;2023-01-04T02:59:14;101556.03;;;3.76;99.11
7200;BME280;3641;49.082;8.200;2023-01-04T03:01:50;101556.78;;;3.91;98.27
7200;BME280;3641;49.082;8.200;2023-01-04T03:04:49;101546.91;;;3.66;100.00
7200;BME280;3641;49.082;8.200;2023-01-04T03:07:40;101543.25;;;3.54;100.00
7200;BME280;3641;49.082;8.200;2023-01-04T03:10:15;101537.53;;;3.96;99.03
7200;BME280;3641;49.082;8.200;2023-01-04T03:12:50;101544.03;;;3.93;98.68
7200;BME280;3641;49.082;8.200;2023-01-04T03:15:21;101537.25;;;3.75;99.47
7200;BME280;3641;49.082;8.200;2023-01-04T03:17:50;101536.69;;;3.82;99.65
7200;BME280;3641;49.082;8.200;2023-01-04T03:20:20;101520.09;;;3.76;100.00
7200;BME280;3641;49.082;8.200;2023-01-04T03:22:51;101527.56;;;3.72;100.00
7200;BME280;3641;49.082;8.200;2023-01-04T03:25:38;101525.41;;;3.64;100.00
7200;BME280;3641;49.082;8.200;2023-01-04T03:28:25;101520.78;;;3.91;100.00
7200;BME280;3641;49.082;8.200;2023-01-04T03:31:13;101522.75;;;4.13;100.00
7200;BME280;3641;49.082;8.200;2023-01-04T03:33:59;101512.03;;;4.48;97.10
7200;BME280;3641;49.082;8.200;2023-01-04T03:36:53;101510.53;;;4.20;100.00
7200;BME280;3641;49.082;8.200;2023-01-04T03:39:28;101503.69;;;4.27;99.21
7200;BME280;3641;49.082;8.200;2023-01-04T03:42:19;101500.91;;;3.92;100.00
7200;BME280;3641;49.082;8.200;2023-01-04T03:45:12;101496.75;;;4.12;100.00
7200;BME280;3641;49.082;8.200;2023-01-04T03:48:02;101484.47;;;4.19;100.00
7200;BME280;3641;49.082;8.200;2023-01-04T03:50:51;101486.22;;;4.20;100.00
7200;BME280;3641;49.082;8.200;2023-01-04T03:53:22;101486.72;;;4.25;100.00
7200;BME280;3641;49.082;8.200;2023-01-04T03:55:50;101478.50;;;4.03;100.00
7200;BME280;3641;49.082;8.200;2023-01-04T03:58:18;101473.34;;;3.99;100.00
7200;BME280;3641;49.082;8.200;2023-01-04T04:00:45;101465.84;;;4.03;100.00
7200;BME280;3641;49.082;8.200;2023-01-04T04:03:12;101460.41;;;3.92;100.00
7200;BME280;3641;49.082;8.200;2023-01-04T04:05:40;101464.66;;;3.83;100.00
7200;BME280;3641;49.082;8.200;2023-01-04T04:08:26;101465.19;;;3.88;100.00
7200;BME280;3641;49.082;8.200;2023-01-04T04:10:54;101467.81;;;4.01;100.00
7200;BME280;3641;49.082;8.200;2023-01-04T04:13:21;101457.13;;;3.75;100.00
7200;BME280;3641;49.082;8.200;2023-01-04T04:15:47;101455.97;;;3.91;100.00
7200;BME280;3641;49.082;8.200;2023-01-04T04:18:14;101458.16;;;3.86;100.00
7200;BME280;3641;49.082;8.200;2023-01-04T04:20:40;101447.22;;;3.87;100.00
7200;BME280;3641;49.082;8.200;2023-01-04T04:23:07;101444.94;;;4.18;100.00
7200;BME280;3641;49.082;8.200;2023-01-04T04:25:34;101449.72;;;4.26;100.00
7200;BME280;3641;49.082;8.200;2023-01-04T04:28:01;101455.94;;;4.39;100.00
7200;BME280;3641;49.082;8.200;2023-01-04T04:30:27;101447.75;;;4.52;100.00
7200;BME280;3641;49.082;8.200;2023-01-04T04:32:54;101450.56;;;4.50;100.00
7200;BME280;3641;49.082;8.200;2023-01-04T04:35:21;101454.50;;;4.58;100.00
7200;BME280;3641;49.082;8.200;2023-01-04T04:37:47;101448.72;;;4.51;100.00
7200;BME280;3641;49.082;8.200;2023-01-04T04:40:14;101433.13;;;4.66;100.00
7200;BME280;3641;49.082;8.200;2023-01-04T04:42:59;101428.94;;;4.50;100.00
7200;BME280;3641;49.082;8.200;2023-01-04T04:45:26;101426.63;;;4.68;100.00
7200;BME280;3641;49.082;8.200;2023-01-04T04:47:52;101424.66;;;4.82;100.00
7200;BME280;3641;49.082;8.200;2023-01-04T04:50:19;101429.25;;;5.04;98.46
7200;BME280;3641;49.082;8.200;2023-01-04T04:52:45;101423.22;;;5.00;99.27
7200;BME280;3641;49.082;8.200;2023-01-04T04:55:12;101422.63;;;4.97;99.79
7200;BME280;3641;49.082;8.200;2023-01-04T04:57:38;101420.50;;;5.12;97.85
7200;BME280;3641;49.082;8.200;2023-01-04T05:00:07;101414.47;;;4.74;100.00
7200;BME280;3641;49.082;8.200;2023-01-04T05:02:34;101406.00;;;4.79;100.00
7200;BME280;3641;49.082;8.200;2023-01-04T05:05:00;101405.38;;;4.98;100.00
7200;BME280;3641;49.082;8.200;2023-01-04T05:07:27;101403.19;;;4.91;100.00
7200;BME280;3641;49.082;8.200;2023-01-04T05:09:53;101406.75;;;4.92;100.00
7200;BME280;3641;49.082;8.200;2023-01-04T05:12:20;101403.31;;;5.01;100.00
7200;BME280;3641;49.082;8.200;2023-01-04T05:15:06;101404.75;;;5.05;100.00
7200;BME280;3641;49.082;8.200;2023-01-04T05:17:33;101401.44;;;5.02;100.00
7200;BME280;3641;49.082;8.200;2023-01-04T05:19:59;101401.19;;;5.16;99.35
7200;BME280;3641;49.082;8.200;2023-01-04T05:22:26;101399.84;;;5.22;98.46
7200;BME280;3641;49.082;8.200;2023-01-04T05:24:52;101401.66;;;5.33;97.83
7200;BME280;3641;49.082;8.200;2023-01-04T05:27:18;101404.75;;;5.05;99.78
7200;BME280;3641;49.082;8.200;2023-01-04T05:29:45;101398.00;;;5.22;99.32
7200;BME280;3641;49.082;8.200;2023-01-04T05:32:42;101393.19;;;5.26;99.51
7200;BME280;3641;49.082;8.200;2023-01-04T05:35:08;101397.00;;;5.12;100.00
7200;BME280;3641;49.082;8.200;2023-01-04T05:37:35;101401.53;;;5.34;98.65
7200;BME280;3641;49.082;8.200;2023-01-04T05:40:01;101406.13;;;5.22;99.96
7200;BME280;3641;49.082;8.200;2023-01-04T05:42:28;101395.34;;;5.55;96.27
7200;BME280;3641;49.082;8.200;2023-01-04T05:44:56;101390.06;;;5.53;97.46
7200;BME280;3641;49.082;8.200;2023-01-04T05:47:23;101391.22;;;5.28;99.68
7200;BME280;3641;49.082;8.200;2023-01-04T05:49:51;101396.00;;;5.36;99.16
7200;BME280;3641;49.082;8.200;2023-01-04T05:52:19;101384.19;;;5.37;98.63
7200;BME280;3641;49.082;8.200;2023-01-04T05:54:46;101383.25;;;5.26;100.00
7200;BME280;3641;49.082;8.200;2023-01-04T05:57:12;101389.13;;;5.32;99.71
7200;BME280;3641;49.082;8.200;2023-01-04T05:59:39;101387.50;;;5.40;99.95
7200;BME280;3641;49.082;8.200;2023-01-04T06:02:06;101381.50;;;5.37;99.24
7200;BME280;3641;49.082;8.200;2023-01-04T06:04:33;101385.00;;;5.60;97.92
7200;BME280;3641;49.082;8.200;2023-01-04T06:07:00;101390.91;;;5.65;96.99
7200;BME280;3641;49.082;8.200;2023-01-04T06:09:27;101384.22;;;5.69;96.18
7200;BME280;3641;49.082;8.200;2023-01-04T06:11:53;101384.28;;;5.46;98.75
7200;BME280;3641;49.082;8.200;2023-01-04T06:14:20;101378.72;;;5.59;97.73
7200;BME280;3641;49.082;8.200;2023-01-04T06:16:46;101365.69;;;5.53;98.86
7200;BME280;3641;49.082;8.200;2023-01-04T06:19:13;101380.19;;;5.63;98.08
7200;BME280;3641;49.082;8.200;2023-01-04T06:21:39;101385.06;;;5.81;96.88
7200;BME280;3641;49.082;8.200;2023-01-04T06:24:09;101375.09;;;5.81;96.69
7200;BME280;3641;49.082;8.200;2023-01-04T06:26:35;101375.91;;;5.50;99.33
7200;BME280;3641;49.082;8.200;2023-01-04T06:29:02;101371.56;;;5.70;97.54
7200;BME280;3641;49.082;8.200;2023-01-04T06:31:28;101368.91;;;5.47;98.84
7200;BME280;3641;49.082;8.200;2023-01-04T06:33:55;101373.53;;;5.68;97.39
7200;BME280;3641;49.082;8.200;2023-01-04T06:36:22;101369.38;;;5.63;97.81
7200;BME280;3641;49.082;8.200;2023-01-04T06:38:48;101367.00;;;5.70;97.27
7200;BME280;3641;49.082;8.200;2023-01-04T06:41:16;101368.22;;;5.66;98.16
7200;BME280;3641;49.082;8.200;2023-01-04T06:43:42;101357.47;;;5.76;97.39
7200;BME280;3641;49.082;8.200;2023-01-04T06:46:09;101365.31;;;5.90;95.56
7200;BME280;3641;49.082;8.200;2023-01-04T06:48:35;101362.75;;;6.00;94.20
7200;BME280;3641;49.082;8.200;2023-01-04T06:51:02;101369.41;;;5.85;95.95
7200;BME280;3641;49.082;8.200;2023-01-04T06:53:28;101370.06;;;5.77;97.01
7200;BME280;3641;49.082;8.200;2023-01-04T06:55:55;101364.72;;;5.87;97.19
7200;BME280;3641;49.082;8.200;2023-01-04T06:58:23;101369.03;;;5.89;96.41
7200;BME280;3641;49.082;8.200;2023-01-04T07:00:50;101380.13;;;5.86;96.53
7200;BME280;3641;49.082;8.200;2023-01-04T07:03:16;101364.41;;;5.69;97.67
7200;BME280;3641;49.082;8.200;2023-01-04T07:05:43;101365.34;;;5.79;97.62
7200;BME280;3641;49.082;8.200;2023-01-04T07:08:10;101370.72;;;5.90;97.45
7200;BME280;3641;49.082;8.200;2023-01-04T07:10:37;101373.19;;;5.93;97.05
7200;BME280;3641;49.082;8.200;2023-01-04T07:13:04;101363.41;;;5.81;97.65
7200;BME280;3641;49.082;8.200;2023-01-04T07:15:32;101359.75;;;6.03;96.46
7200;BME280;3641;49.082;8.200;2023-01-04T07:17:59;101365.19;;;5.92;97.53
7200;BME280;3641;49.082;8.200;2023-01-04T07:20:25;101355.13;;;5.82;98.15
7200;BME280;3641;49.082;8.200;2023-01-04T07:22:52;101355.59;;;5.88;98.29
7200;BME280;3641;49.082;8.200;2023-01-04T07:25:19;101355.00;;;5.84;99.34
7200;BME280;3641;49.082;8.200;2023-01-04T07:27:49;101354.59;;;6.00;97.62
7200;BME280;3641;49.082;8.200;2023-01-04T07:30:16;101347.41;;;5.78;98.72
7200;BME280;3641;49.082;8.200;2023-01-04T07:32:44;101338.00;;;5.82;99.07
7200;BME280;3641;49.082;8.200;2023-01-04T07:35:10;101342.09;;;5.76;98.95
7200;BME280;3641;49.082;8.200;2023-01-04T07:37:37;101328.63;;;5.86;99.00
7200;BME280;3641;49.082;8.200;2023-01-04T07:40:04;101343.28;;;5.83;98.41
7200;BME280;3641;49.082;8.200;2023-01-04T07:42:31;101342.88;;;5.99;97.86
7200;BME280;3641;49.082;8.200;2023-01-04T07:44:57;101328.63;;;5.86;98.72
7200;BME280;3641;49.082;8.200;2023-01-04T07:47:24;101322.38;;;5.86;98.63
7200;BME280;3641;49.082;8.200;2023-01-04T07:49:54;101321.19;;;5.99;97.79
7200;BME280;3641;49.082;8.200;2023-01-04T07:52:20;101297.94;;;5.97;96.96
7200;BME280;3641;49.082;8.200;2023-01-04T07:54:47;101294.09;;;5.99;96.60
7200;BME280;3641;49.082;8.200;2023-01-04T07:57:13;101291.72;;;6.06;96.59
7200;BME280;3641;49.082;8.200;2023-01-04T07:59:40;101281.34;;;6.11;95.71
7200;BME280;3641;49.082;8.200;2023-01-04T08:02:08;101293.63;;;6.15;95.17
7200;BME280;3641;49.082;8.200;2023-01-04T08:04:35;101293.69;;;6.25;94.81
7200;BME280;3641;49.082;8.200;2023-01-04T08:07:03;101294.31;;;6.29;93.93
7200;BME280;3641;49.082;8.200;2023-01-04T08:09:30;101276.75;;;6.33;94.01
7200;BME280;3641;49.082;8.200;2023-01-04T08:11:57;101268.47;;;6.34;93.89
7200;BME280;3641;49.082;8.200;2023-01-04T08:14:23;101290.88;;;6.36;93.72
7200;BME280;3641;49.082;8.200;2023-01-04T08:16:49;101279.66;;;6.41;92.74
7200;BME280;3641;49.082;8.200;2023-01-04T08:19:18;101295.50;;;6.46;92.55
7200;BME280;3641;49.082;8.200;2023-01-04T08:21:46;101291.28;;;6.53;92.18
7200;BME280;3641;49.082;8.200;2023-01-04T08:24:16;101298.66;;;6.51;91.67
7200;BME280;3641;49.082;8.200;2023-01-04T08:26:43;101292.72;;;6.57;90.71
7200;BME280;3641;49.082;8.200;2023-01-04T08:29:10;101279.47;;;6.64;89.95
7200;BME280;3641;49.082;8.200;2023-01-04T08:31:38;101293.75;;;6.66;90.21
7200;BME280;3641;49.082;8.200;2023-01-04T08:34:06;101296.59;;;6.64;89.17
7200;BME280;3641;49.082;8.200;2023-01-04T08:36:35;101286.34;;;6.68;88.92
7200;BME280;3641;49.082;8.200;2023-01-04T08:39:08;101276.53;;;6.77;87.49
7200;BME280;3641;49.082;8.200;2023-01-04T08:41:36;101264.66;;;6.78;87.84
7200;BME280;3641;49.082;8.200;2023-01-04T08:44:15;101270.69;;;6.81;87.03
7200;BME280;3641;49.082;8.200;2023-01-04T08:46:41;101260.56;;;6.83;86.74
7200;BME280;3641;49.082;8.200;2023-01-04T08:49:08;101271.97;;;6.87;86.24
7200;BME280;3641;49.082;8.200;2023-01-04T08:51:34;101260.28;;;6.96;86.18
7200;BME280;3641;49.082;8.200;2023-01-04T08:54:01;101252.28;;;6.95;85.38
7200;BME280;3641;49.082;8.200;2023-01-04T08:56:27;101242.16;;;6.97;85.42
7200;BME280;3641;49.082;8.200;2023-01-04T08:58:55;101246.31;;;7.01;85.81
7200;BME280;3641;49.082;8.200;2023-01-04T09:01:21;101246.59;;;6.98;85.74
7200;BME280;3641;49.082;8.200;2023-01-04T09:03:48;101239.31;;;7.08;84.48
7200;BME280;3641;49.082;8.200;2023-01-04T09:06:15;101237.31;;;7.10;84.43
7200;BME280;3641;49.082;8.200;2023-01-04T09:08:42;101240.47;;;7.15;84.54
7200;BME280;3641;49.082;8.200;2023-01-04T09:11:11;101240.59;;;7.14;84.44
7200;BME280;3641;49.082;8.200;2023-01-04T09:13:38;101247.59;;;7.16;84.80
7200;BME280;3641;49.082;8.200;2023-01-04T09:16:08;101259.19;;;7.18;84.34
7200;BME280;3641;49.082;8.200;2023-01-04T09:18:35;101236.03;;;7.24;84.70
7200;BME280;3641;49.082;8.200;2023-01-04T09:21:04;101242.78;;;7.20;84.10
7200;BME280;3641;49.082;8.200;2023-01-04T09:23:31;101235.91;;;7.25;84.45
7200;BME280;3641;49.082;8.200;2023-01-04T09:25:59;101237.75;;;7.25;84.55
7200;BME280;3641;49.082;8.200;2023-01-04T09:28:25;101233.91;;;7.27;84.68
7200;BME280;3641;49.082;8.200;2023-01-04T09:30:52;101242.91;;;7.28;84.46
7200;BME280;3641;49.082;8.200;2023-01-04T09:33:19;101230.03;;;7.30;83.42
7200;BME280;3641;49.082;8.200;2023-01-04T09:35:46;101234.47;;;7.31;84.38
7200;BME280;3641;49.082;8.200;2023-01-04T09:38:12;101231.06;;;7.39;83.93
7200;BME280;3641;49.082;8.200;2023-01-04T09:40:49;101243.06;;;7.36;83.88
7200;BME280;3641;49.082;8.200;2023-01-04T09:43:18;101243.47;;;7.41;83.65
7200;BME280;3641;49.082;8.200;2023-01-04T09:45:46;101230.91;;;7.40;83.30
7200;BME280;3641;49.082;8.200;2023-01-04T09:48:17;101222.44;;;7.43;82.59
7200;BME280;3641;49.082;8.200;2023-01-04T09:50:51;101218.47;;;7.48;82.67
7200;BME280;3641;49.082;8.200;2023-01-04T09:53:23;101221.59;;;7.53;82.49
7200;BME280;3641;49.082;8.200;2023-01-04T09:55:52;101217.88;;;7.54;82.85
7200;BME280;3641;49.082;8.200;2023-01-04T09:58:25;101218.59;;;7.56;82.19
7200;BME280;3641;49.082;8.200;2023-01-04T10:00:59;101208.16;;;7.61;82.30
7200;BME280;3641;49.082;8.200;2023-01-04T10:03:29;101217.88;;;7.63;82.89
7200;BME280;3641;49.082;8.200;2023-01-04T10:05:58;101214.31;;;7.63;82.32
7200;BME280;3641;49.082;8.200;2023-01-04T10:08:25;101200.16;;;7.69;82.69
7200;BME280;3641;49.082;8.200;2023-01-04T10:11:04;101186.13;;;7.64;82.00
7200;BME280;3641;49.082;8.200;2023-01-04T10:13:46;101182.69;;;7.72;83.46
7200;BME280;3641;49.082;8.200;2023-01-04T10:16:19;101182.13;;;7.68;82.13
7200;BME280;3641;49.082;8.200;2023-01-04T10:18:52;101193.41;;;7.73;81.42
7200;BME280;3641;49.082;8.200;2023-01-04T10:21:33;101185.81;;;7.77;82.64
7200;BME280;3641;49.082;8.200;2023-01-04T10:24:24;101186.84;;;7.76;82.74
7200;BME280;3641;49.082;8.200;2023-01-04T10:26:58;101198.25;;;7.79;82.45
7200;BME280;3641;49.082;8.200;2023-01-04T10:29:44;101193.81;;;7.78;82.26
7200;BME280;3641;49.082;8.200;2023-01-04T10:32:17;101183.09;;;7.77;81.54
7200;BME280;3641;49.082;8.200;2023-01-04T10:34:46;101181.81;;;7.81;82.16
7200;BME280;3641;49.082;8.200;2023-01-04T10:37:17;101197.56;;;7.77;82.14
7200;BME280;3641;49.082;8.200;2023-01-04T10:39:46;101186.66;;;7.87;83.05
7200;BME280;3641;49.082;8.200;2023-01-04T10:42:19;101175.41;;;7.72;83.03
7200;BME280;3641;49.082;8.200;2023-01-04T10:44:56;101182.13;;;7.68;83.38
7200;BME280;3641;49.082;8.200;2023-01-04T10:47:30;101183.22;;;7.75;83.40
7200;BME280;3641;49.082;8.200;2023-01-04T10:50:04;101177.38;;;7.70;84.03
7200;BME280;3641;49.082;8.200;2023-01-04T10:52:39;101163.66;;;7.72;83.52
7200;BME280;3641;49.082;8.200;2023-01-04T10:55:13;101159.66;;;7.76;84.40
7200;BME280;3641;49.082;8.200;2023-01-04T10:57:45;101147.63;;;7.69;84.40
7200;BME280;3641;49.082;8.200;2023-01-04T11:00:16;101186.41;;;7.71;84.79
7200;BME280;3641;49.082;8.200;2023-01-04T11:02:49;101174.81;;;7.69;85.59
7200;BME280;3641;49.082;8.200;2023-01-04T11:05:22;101172.69;;;7.72;85.66
7200;BME280;3641;49.082;8.200;2023-01-04T11:07:54;101180.84;;;7.72;85.71
7200;BME280;3641;49.082;8.200;2023-01-04T11:10:26;101160.22;;;7.70;85.57
7200;BME280;3641;49.082;8.200;2023-01-04T11:12:54;101167.25;;;7.72;85.40
7200;BME280;3641;49.082;8.200;2023-01-04T11:15:20;101159.81;;;7.74;85.63
7200;BME280;3641;49.082;8.200;2023-01-04T11:17:47;101151.34;;;7.77;85.50
7200;BME280;3641;49.082;8.200;2023-01-04T11:20:14;101143.91;;;7.79;86.08
7200;BME280;3641;49.082;8.200;2023-01-04T11:22:45;101153.47;;;7.84;85.68
7200;BME280;3641;49.082;8.200;2023-01-04T11:25:17;101147.91;;;7.85;85.82
7200;BME280;3641;49.082;8.200;2023-01-04T11:27:47;101149.16;;;7.91;86.18
7200;BME280;3641;49.082;8.200;2023-01-04T11:30:18;101136.00;;;7.86;86.05
7200;BME280;3641;49.082;8.200;2023-01-04T11:32:49;101144.28;;;7.94;86.12
7200;BME280;3641;49.082;8.200;2023-01-04T11:35:37;101160.72;;;7.93;85.76
7200;BME280;3641;49.082;8.200;2023-01-04T11:38:10;101165.03;;;7.95;85.43
7200;BME280;3641;49.082;8.200;2023-01-04T11:40:38;101160.88;;;8.01;85.44
7200;BME280;3641;49.082;8.200;2023-01-04T11:43:16;101157.13;;;8.02;85.34
7200;BME280;3641;49.082;8.200;2023-01-04T11:45:55;101147.38;;;8.09;85.13
7200;BME280;3641;49.082;8.200;2023-01-04T11:48:31;101153.97;;;8.07;85.70
7200;BME280;3641;49.082;8.200;2023-01-04T11:50:57;101153.38;;;8.13;85.08
7200;BME280;3641;49.082;8.200;2023-01-04T11:53:28;101143.34;;;8.13;85.01
7200;BME280;3641;49.082;8.200;2023-01-04T11:56:14;101140.31;;;8.16;85.15
7200;BME280;3641;49.082;8.200;2023-01-04T11:58:42;101148.88;;;8.22;84.95
7200;BME280;3641;49.082;8.200;2023-01-04T12:01:27;101142.16;;;8.26;84.23
7200;BME280;3641;49.082;8.200;2023-01-04T12:03:54;101139.97;;;8.29;84.33
7200;BME280;3641;49.082;8.200;2023-01-04T12:06:26;101131.50;;;8.32;84.79
7200;BME280;3641;49.082;8.200;2023-01-04T12:08:57;101138.78;;;8.42;84.67
7200;BME280;3641;49.082;8.200;2023-01-04T12:11:28;101116.31;;;8.40;84.59
7200;BME280;3641;49.082;8.200;2023-01-04T12:13:56;101120.56;;;8.42;84.02
7200;BME280;3641;49.082;8.200;2023-01-04T12:16:42;101117.28;;;8.48;84.60
7200;BME280;3641;49.082;8.200;2023-01-04T12:19:13;101124.28;;;8.51;84.54
7200;BME280;3641;49.082;8.200;2023-01-04T12:21:42;101115.53;;;8.57;84.54
7200;BME280;3641;49.082;8.200;2023-01-04T12:24:15;101105.47;;;8.58;84.80
7200;BME280;3641;49.082;8.200;2023-01-04T12:26:44;101101.47;;;8.62;84.05
7200;BME280;3641;49.082;8.200;2023-01-04T12:29:31;101086.66;;;8.64;84.25
7200;BME280;3641;49.082;8.200;2023-01-04T12:34:58;101090.66;;;8.70;84.30
7200;BME280;3641;49.082;8.200;2023-01-04T12:37:45;101084.03;;;8.72;83.39
7200;BME280;3641;49.082;8.200;2023-01-04T12:43:22;101096.78;;;8.72;82.91
7200;BME280;3641;49.082;8.200;2023-01-04T12:49:49;101088.78;;;8.70;83.45
7200;BME280;3641;49.082;8.200;2023-01-04T12:52:39;101082.03;;;8.75;83.18
7200;BME280;3641;49.082;8.200;2023-01-04T12:58:37;101078.13;;;8.77;83.16
7200;BME280;3641;49.082;8.200;2023-01-04T13:01:20;101069.63;;;8.80;83.69
7200;BME280;3641;49.082;8.200;2023-01-04T13:03:53;101064.03;;;8.82;83.93
7200;BME280;3641;49.082;8.200;2023-01-04T13:06:22;101071.34;;;8.81;83.35
7200;BME280;3641;49.082;8.200;2023-01-04T13:08:50;101053.38;;;8.88;83.52
7200;BME280;3641;49.082;8.200;2023-01-04T13:11:31;101059.13;;;8.85;83.66
7200;BME280;3641;49.082;8.200;2023-01-04T13:14:01;101053.22;;;8.90;82.92
7200;BME280;3641;49.082;8.200;2023-01-04T13:16:37;101061.38;;;8.90;83.70
7200;BME280;3641;49.082;8.200;2023-01-04T13:19:10;101062.63;;;8.96;83.12
7200;BME280;3641;49.082;8.200;2023-01-04T13:21:40;101056.50;;;8.94;83.80
7200;BME280;3641;49.082;8.200;2023-01-04T13:24:18;101066.91;;;8.98;83.84
7200;BME280;3641;49.082;8.200;2023-01-04T13:26:46;101069.31;;;9.01;83.19
7200;BME280;3641;49.082;8.200;2023-01-04T13:29:16;101063.31;;;8.98;83.60
7200;BME280;3641;49.082;8.200;2023-01-04T13:31:51;101038.50;;;9.01;82.88
7200;BME280;3641;49.082;8.200;2023-01-04T13:34:20;101044.47;;;9.04;83.11
7200;BME280;3641;49.082;8.200;2023-01-04T13:37:02;101042.63;;;9.05;83.33
7200;BME280;3641;49.082;8.200;2023-01-04T13:39:30;101024.09;;;9.08;82.67
7200;BME280;3641;49.082;8.200;2023-01-04T13:41:56;101030.22;;;9.11;82.79
7200;BME280;3641;49.082;8.200;2023-01-04T13:44:35;101032.44;;;9.07;82.88
7200;BME280;3641;49.082;8.200;2023-01-04T13:47:07;101019.19;;;9.12;82.42
7200;BME280;3641;49.082;8.200;2023-01-04T13:49:36;101012.72;;;9.13;82.88
7200;BME280;3641;49.082;8.200;2023-01-04T13:52:31;101013.25;;;9.17;82.68
7200;BME280;3641;49.082;8.200;2023-01-04T13:55:10;101016.31;;;9.14;82.87
7200;BME280;3641;49.082;8.200;2023-01-04T13:57:37;101015.97;;;9.17;82.40
7200;BME280;3641;49.082;8.200;2023-01-04T14:00:04;101017.00;;;9.16;82.57
7200;BME280;3641;49.082;8.200;2023-01-04T14:02:32;101023.16;;;9.18;82.58